Time;durP1;ratioP1;P1;durP2;ratioP2;P2;SDS_P1;SDS_P2;PMS_P1;PMS_P2;Temp;Humidity;BMP_temperature;BMP_pressure;BME280_temperature;BME280_humidity;BME280_pressure;Samples;Min_cycle;Max_cycle;Signal;HPM_P1;HPM_P2
2022/04/20 00:00:28;;;;;;;23.70;14.73;;;;;;;-1.19;100.00;90476.44;5013727;28;20532;-71
2022/04/20 00:02:54;;;;;;;25.05;15.48;;;;;;;-1.17;100.00;90469.16;5013743;28;20030;-71
2022/04/20 00:05:19;;;;;;;28.60;16.08;;;;;;;-1.22;100.00;90472.50;5013562;28;20483;-71
2022/04/20 00:07:44;;;;;;;29.13;16.45;;;;;;;-1.29;100.00;90466.69;5013651;28;20420;-70
2022/04/20 00:10:10;;;;;;;24.98;15.80;;;;;;;-1.36;100.00;90466.13;5013691;28;20032;-70
2022/04/20 00:12:35;;;;;;;24.20;14.65;;;;;;;-1.39;100.00;90479.69;5013474;28;20424;-71
2022/04/20 00:15:01;;;;;;;22.70;14.43;;;;;;;-1.48;100.00;90481.16;5013491;28;20132;-72
2022/04/20 00:17:27;;;;;;;24.08;15.70;;;;;;;-1.49;100.00;90477.75;5013438;28;20038;-71
2022/04/20 00:19:54;;;;;;;26.05;15.25;;;;;;;-1.51;100.00;90477.22;5013462;28;20040;-71
2022/04/20 00:22:19;;;;;;;21.80;14.23;;;;;;;-1.56;100.00;90483.19;5013279;28;20065;-71
2022/04/20 00:24:44;;;;;;;24.20;15.30;;;;;;;-1.63;100.00;90469.53;5013052;28;20500;-71
2022/04/20 00:27:10;;;;;;;25.50;16.48;;;;;;;-1.59;100.00;90483.66;5013322;28;20053;-71
2022/04/20 00:29:35;;;;;;;25.40;15.60;;;;;;;-1.67;100.00;90478.91;5013397;28;20061;-72
2022/04/20 00:32:01;;;;;;;23.15;15.23;;;;;;;-1.72;100.00;90473.63;5013250;28;20435;-71
2022/04/20 00:34:26;;;;;;;31.80;16.25;;;;;;;-1.72;100.00;90489.28;5012941;28;20419;-71
2022/04/20 00:36:53;;;;;;;23.77;15.48;;;;;;;-1.68;100.00;90479.94;5013013;28;20478;-71
2022/04/20 00:39:19;;;;;;;29.92;22.75;;;;;;;-1.60;100.00;90476.84;5012900;28;20036;-71
2022/04/20 00:41:45;;;;;;;23.77;14.65;;;;;;;-1.59;100.00;90477.66;5013011;28;20823;-71
2022/04/20 00:44:11;;;;;;;23.42;13.32;;;;;;;-1.71;100.00;90477.81;5012874;28;20025;-71
2022/04/20 00:46:38;;;;;;;28.80;14.77;;;;;;;-1.67;100.00;90486.72;5012913;28;20038;-71
2022/04/20 00:49:05;;;;;;;22.63;15.57;;;;;;;-1.67;100.00;90478.91;5010365;28;20034;-71
2022/04/20 00:51:31;;;;;;;26.13;15.15;;;;;;;-1.65;100.00;90478.66;5012881;28;20038;-70
2022/04/20 00:54:01;;;;;;;25.17;15.75;;;;;;;-1.59;100.00;90470.59;4994895;28;20034;-70
2022/04/20 00:56:27;;;;;;;21.77;14.82;;;;;;;-1.61;100.00;90470.06;5010368;28;20030;-71
2022/04/20 00:58:53;;;;;;;24.20;13.52;;;;;;;-1.56;100.00;90464.13;5012741;28;20030;-70
2022/04/20 01:01:19;;;;;;;20.98;13.40;;;;;;;-1.59;100.00;90460.19;5012551;28;20069;-70
2022/04/20 01:03:45;;;;;;;21.77;13.50;;;;;;;-1.55;100.00;90463.88;5012606;28;20121;-70
2022/04/20 01:06:10;;;;;;;20.33;13.15;;;;;;;-1.49;100.00;90458.72;5012229;28;20030;-70
2022/04/20 01:08:36;;;;;;;20.08;13.30;;;;;;;-1.53;100.00;90459.22;5012428;28;20046;-71
2022/04/20 01:11:02;;;;;;;20.90;12.90;;;;;;;-1.51;100.00;90459.75;5012655;28;20033;-71
2022/04/20 01:13:29;;;;;;;19.63;13.32;;;;;;;-1.51;100.00;90451.91;5012594;28;20034;-70
2022/04/20 01:15:54;;;;;;;23.10;14.00;;;;;;;-1.51;100.00;90448.53;5012252;28;20100;-70
2022/04/20 01:18:20;;;;;;;24.40;14.60;;;;;;;-1.47;100.00;90439.16;5012246;28;20041;-70
2022/04/20 01:20:46;;;;;;;23.02;15.00;;;;;;;-1.49;100.00;90450.88;5012240;28;20034;-71
2022/04/20 01:23:11;;;;;;;28.92;17.90;;;;;;;-1.62;100.00;90447.63;5012241;28;20034;-70
2022/04/20 01:25:38;;;;;;;28.58;17.67;;;;;;;-1.60;100.00;90456.00;5012190;28;20042;-70
2022/04/20 01:28:04;;;;;;;29.40;18.17;;;;;;;-1.71;100.00;90454.34;5009628;28;20651;-70
2022/04/20 01:30:30;;;;;;;36.65;20.25;;;;;;;-1.72;100.00;90465.81;5012144;28;20034;-71
2022/04/20 01:32:56;;;;;;;32.97;19.73;;;;;;;-1.71;100.00;90464.00;5012012;28;20042;-72
2022/04/20 01:42:10;;;;;;;36.47;20.23;;;;;;;-1.79;100.00;90460.00;5010117;28;20060;-73
2022/04/20 01:44:36;;;;;;;19.85;13.32;;;;;;;-1.74;100.00;90454.03;5010990;28;20049;-72
2022/04/20 01:47:02;;;;;;;21.13;13.73;;;;;;;-1.70;100.00;90455.13;5012137;28;20263;-71
2022/04/20 01:49:27;;;;;;;20.85;13.50;;;;;;;-1.72;100.00;90463.22;5011894;28;20578;-71
2022/04/20 01:51:54;;;;;;;23.02;13.15;;;;;;;-1.67;100.00;90452.03;5011874;28;20035;-71
2022/04/20 01:54:20;;;;;;;38.53;21.42;;;;;;;-1.55;100.00;90463.88;5011590;28;20411;-71
2022/04/20 01:56:48;;;;;;;21.13;13.45;;;;;;;-1.53;100.00;90451.38;5011777;28;20034;-71
2022/04/20 01:59:14;;;;;;;18.45;11.88;;;;;;;-1.46;100.00;90472.03;5013070;28;20125;-71
2022/04/20 02:15:27;;;;;;;33.28;17.92;;;;;;;-1.93;100.00;90475.22;5013053;28;20156;-70
2022/04/20 02:21:05;;;;;;;37.10;19.88;;;;;;;-1.82;100.00;90484.75;5012881;28;20570;-70
2022/04/20 02:23:31;;;;;;;33.53;18.02;;;;;;;-1.97;100.00;90479.38;5012472;28;20030;-70
2022/04/20 02:29:30;;;;;;;32.97;19.17;;;;;;;-2.08;100.00;90479.50;5012788;28;20068;-70
2022/04/20 02:35:44;;;;;;;24.65;15.18;;;;;;;-1.99;100.00;90478.81;5012651;28;20480;-70
2022/04/20 02:38:41;;;;;;;34.53;19.25;;;;;;;-2.05;100.00;90465.97;5012267;28;20034;-71
2022/04/20 02:41:07;;;;;;;27.52;16.25;;;;;;;-2.04;100.00;90470.97;4991836;28;20046;-72
2022/04/20 02:43:33;;;;;;;24.58;16.25;;;;;;;-2.02;100.00;90468.13;5012159;28;20038;-69
2022/04/20 02:45:58;;;;;;;23.70;15.02;;;;;;;-1.99;100.00;90473.63;5012239;28;20128;-69
2022/04/20 02:48:24;;;;;;;27.38;15.55;;;;;;;-2.25;100.00;90446.47;5012197;28;20045;-70
2022/04/20 02:50:49;;;;;;;28.67;16.40;;;;;;;-2.14;100.00;90476.06;5012255;28;20508;-70
2022/04/20 02:53:15;;;;;;;27.02;15.18;;;;;;;-2.17;100.00;90460.91;5012048;28;20038;-70
2022/04/20 02:55:42;;;;;;;29.42;15.20;;;;;;;-2.27;100.00;90461.56;5012137;28;20112;-70
2022/04/20 02:58:07;;;;;;;19.13;13.15;;;;;;;-2.31;100.00;90472.72;5012131;28;20398;-70
2022/04/20 03:00:33;;;;;;;25.08;16.02;;;;;;;-2.15;100.00;90474.47;5011932;28;20041;-69
2022/04/20 03:02:58;;;;;;;24.08;14.57;;;;;;;-2.20;100.00;90451.78;5010619;28;20515;-70
2022/04/20 03:05:24;;;;;;;25.88;16.98;;;;;;;-2.02;100.00;90470.72;5011831;28;20038;-71
2022/04/20 03:07:49;;;;;;;24.60;15.07;;;;;;;-1.83;100.00;90479.78;5011924;28;20069;-70
2022/04/20 03:10:15;;;;;;;24.45;15.70;;;;;;;-1.92;100.00;90483.84;5010428;28;20034;-71
2022/04/20 03:12:40;;;;;;;22.58;14.63;;;;;;;-2.11;100.00;90473.75;5010919;28;20030;-70
2022/04/20 03:15:06;;;;;;;21.25;13.68;;;;;;;-2.26;100.00;90462.34;5004829;28;20034;-70
2022/04/20 03:17:32;;;;;;;22.42;13.73;;;;;;;-2.14;100.00;90476.84;5000970;28;20046;-70
2022/04/20 03:19:57;;;;;;;23.73;13.98;;;;;;;-2.26;100.00;90473.56;5000837;28;20038;-70
2022/04/20 03:22:22;;;;;;;22.27;13.80;;;;;;;-2.26;100.00;90476.16;5002187;28;20067;-70
2022/04/20 03:24:48;;;;;;;19.60;12.63;;;;;;;-2.43;100.00;90483.25;5000376;28;20866;-70
2022/04/20 03:27:14;;;;;;;35.20;15.15;;;;;;;-2.53;100.00;90483.13;5001035;28;20038;-70
2022/04/20 03:29:41;;;;;;;27.20;17.63;;;;;;;-2.54;100.00;90481.56;5004304;28;20118;-71
2022/04/20 03:32:10;;;;;;;29.15;17.35;;;;;;;-2.51;100.00;90478.47;5008141;28;20495;-70
2022/04/20 03:34:37;;;;;;;28.02;16.77;;;;;;;-2.45;100.00;90475.69;5010840;28;20567;-71
2022/04/20 03:37:05;;;;;;;28.00;17.73;;;;;;;-2.46;100.00;90479.31;5010730;28;20033;-71
2022/04/20 03:39:30;;;;;;;32.58;19.35;;;;;;;-2.35;100.00;90476.84;5011137;28;20034;-71
2022/04/20 03:41:56;;;;;;;32.88;18.92;;;;;;;-2.35;100.00;90477.66;5001927;28;20176;-71
2022/04/20 03:44:21;;;;;;;31.27;19.02;;;;;;;-2.26;100.00;90472.78;5010555;28;20048;-70
2022/04/20 03:46:47;;;;;;;33.03;19.98;;;;;;;-2.31;100.00;90457.09;5007465;28;20042;-70
2022/04/20 03:49:12;;;;;;;35.17;19.17;;;;;;;-2.26;100.00;90442.31;5010873;28;20046;-73
2022/04/20 03:51:39;;;;;;;32.67;19.60;;;;;;;-2.04;100.00;90462.34;5010766;28;20096;-71
2022/04/20 03:54:04;;;;;;;27.90;17.63;;;;;;;-1.94;100.00;90465.06;5010223;28;20038;-70
2022/04/20 03:57:03;;;;;;;25.30;17.45;;;;;;;-1.89;100.00;90459.91;5009741;28;20044;-71
2022/04/20 03:59:15;;;;;;;31.40;17.83;;;;;;;-1.75;100.00;90468.88;5008615;28;20112;-71
2022/04/20 04:01:40;;;;;;;26.33;17.73;;;;;;;-1.67;100.00;90463.25;5010690;28;20567;-71
2022/04/20 04:04:06;;;;;;;19.50;13.98;;;;;;;-1.58;100.00;90448.75;5010954;28;20046;-71
2022/04/20 04:06:31;;;;;;;22.27;12.00;;;;;;;-1.29;100.00;90451.03;5011030;28;20045;-70
2022/04/20 04:08:57;;;;;;;17.92;11.25;;;;;;;-1.16;100.00;90448.00;5010979;28;20065;-70
2022/04/20 04:11:22;;;;;;;15.23;10.00;;;;;;;-0.96;100.00;90455.97;5010938;28;20417;-70
2022/04/20 04:13:47;;;;;;;19.85;12.10;;;;;;;-0.99;100.00;90435.59;5010739;28;20034;-70
2022/04/20 04:16:13;;;;;;;26.13;17.40;;;;;;;-0.93;100.00;90439.84;5010574;28;20049;-69
2022/04/20 04:18:38;;;;;;;39.75;21.92;;;;;;;-1.00;100.00;90426.19;5010717;28;20057;-69
2022/04/20 04:21:04;;;;;;;37.53;21.65;;;;;;;-0.78;100.00;90436.53;5010778;28;20049;-70
2022/04/20 04:23:29;;;;;;;33.03;20.02;;;;;;;-0.60;100.00;90432.72;5009746;28;20038;-70
2022/04/20 04:25:55;;;;;;;63.35;33.30;;;;;;;-0.36;100.00;90433.06;5010812;28;20042;-70
2022/04/20 04:28:21;;;;;;;50.95;25.67;;;;;;;-0.27;100.00;90430.75;5011091;28;20121;-69
2022/04/20 04:30:46;;;;;;;91.03;47.20;;;;;;;-0.33;100.00;90428.09;5010957;28;20042;-69
2022/04/20 04:33:12;;;;;;;63.97;33.40;;;;;;;-0.38;100.00;90422.88;5010926;28;20068;-69
2022/04/20 04:35:37;;;;;;;54.15;31.88;;;;;;;-0.27;100.00;90428.16;5011033;28;20121;-69
2022/04/20 04:38:03;;;;;;;41.38;25.67;;;;;;;-0.13;100.00;90429.25;5009588;28;20068;-69
2022/04/20 04:40:28;;;;;;;32.83;18.50;;;;;;;-0.06;100.00;90421.94;5010941;28;20096;-69
2022/04/20 04:42:53;;;;;;;32.78;20.52;;;;;;;-0.27;100.00;90417.69;5014215;28;20049;-69
2022/04/20 04:50:47;;;;;;;45.22;26.35;;;;;;;0.11;100.00;90425.13;5014526;28;20428;-71
2022/04/20 04:53:13;;;;;;;73.15;39.22;;;;;;;0.04;100.00;90413.34;5014170;28;20042;-70
2022/04/20 04:55:38;;;;;;;40.42;21.63;;;;;;;-0.08;100.00;90432.66;5014208;28;20472;-69
2022/04/20 04:58:04;;;;;;;34.85;23.10;;;;;;;-0.35;100.00;90430.19;5014390;28;20116;-69
2022/04/20 05:00:29;;;;;;;57.30;26.70;;;;;;;-0.43;100.00;90433.31;5014011;28;20128;-69
2022/04/20 05:02:55;;;;;;;60.15;26.63;;;;;;;-0.40;100.00;90448.47;5013953;28;20042;-69
2022/04/20 05:05:20;;;;;;;54.45;23.63;;;;;;;-0.58;100.00;90451.53;5013950;28;20034;-68
2022/04/20 05:07:46;;;;;;;73.18;30.85;;;;;;;-0.66;100.00;90459.81;5014068;28;20038;-68
2022/04/20 05:10:11;;;;;;;51.33;29.73;;;;;;;-0.76;100.00;90454.56;5013988;28;20116;-68
2022/04/20 05:12:37;;;;;;;37.35;20.10;;;;;;;-0.66;100.00;90460.59;5013793;28;20049;-69
2022/04/20 05:15:02;;;;;;;47.13;21.40;;;;;;;-0.70;100.00;90469.22;5013882;28;20081;-70
2022/04/20 05:17:28;;;;;;;39.17;23.48;;;;;;;-0.61;100.00;90457.25;5013758;28;20041;-69
2022/04/20 05:19:53;;;;;;;46.33;22.20;;;;;;;-0.62;100.00;90466.13;5013834;28;20121;-68
2022/04/20 05:22:18;;;;;;;38.45;21.45;;;;;;;-0.64;100.00;90463.75;5013671;28;20065;-69
2022/04/20 05:24:44;;;;;;;57.60;23.10;;;;;;;-0.74;100.00;90465.53;5013687;28;20042;-69
2022/04/20 05:27:09;;;;;;;44.50;24.73;;;;;;;-0.78;100.00;90456.63;5013460;28;20049;-69
2022/04/20 05:29:35;;;;;;;43.88;21.05;;;;;;;-0.58;100.00;90467.19;5013552;28;20053;-68
2022/04/20 05:32:00;;;;;;;38.05;20.60;;;;;;;-0.38;100.00;90480.34;5013534;28;20052;-70
2022/04/20 05:34:28;;;;;;;49.40;22.25;;;;;;;-0.62;100.00;90466.13;5013490;28;20041;-69
2022/04/20 05:42:21;;;;;;;40.78;24.70;;;;;;;-0.44;100.00;90499.66;5013532;28;20045;-70
2022/04/20 05:44:49;;;;;;;66.90;32.33;;;;;;;-0.34;100.00;90504.94;5013226;28;20041;-68
2022/04/20 05:47:15;;;;;;;52.97;28.15;;;;;;;-0.22;100.00;90507.34;5013267;28;20053;-69
2022/04/20 05:49:41;;;;;;;47.88;25.73;;;;;;;-0.10;100.00;90513.16;5013235;28;20046;-69
2022/04/20 05:52:06;;;;;;;55.38;27.60;;;;;;;-0.06;100.00;90513.44;5011908;28;20095;-68
2022/04/20 05:54:32;;;;;;;81.68;44.22;;;;;;;-0.07;100.00;90510.03;5013032;28;20056;-71
2022/04/20 05:56:57;;;;;;;113.40;56.15;;;;;;;-0.03;100.00;90520.78;5013019;28;20069;-69
2022/04/20 05:59:23;;;;;;;61.63;39.70;;;;;;;-0.03;100.00;90518.16;5013002;28;20080;-69
2022/04/20 06:01:49;;;;;;;56.05;31.50;;;;;;;0.10;100.00;90512.47;5012991;28;20036;-73
2022/04/20 06:04:14;;;;;;;67.13;36.10;;;;;;;0.20;100.00;90501.25;5012985;28;20056;-70
2022/04/20 06:06:40;;;;;;;75.97;38.50;;;;;;;0.41;100.00;90504.72;5011678;28;20048;-69
2022/04/20 06:09:05;;;;;;;50.92;28.45;;;;;;;0.54;100.00;90509.47;5012986;28;20040;-69
2022/04/20 06:11:31;;;;;;;41.70;20.17;;;;;;;0.65;100.00;90521.53;5012867;28;20038;-68
2022/04/20 06:13:57;;;;;;;46.75;22.02;;;;;;;0.81;100.00;90517.91;5012720;28;20145;-68
2022/04/20 06:16:23;;;;;;;44.17;22.67;;;;;;;0.87;100.00;90523.91;5012726;28;20543;-69
2022/04/20 06:18:48;;;;;;;33.95;18.77;;;;;;;0.97;100.00;90502.22;5012507;28;20034;-71
2022/04/20 06:21:14;;;;;;;32.47;19.63;;;;;;;1.09;100.00;90521.06;5012698;28;20053;-69
2022/04/20 06:23:39;;;;;;;34.97;21.52;;;;;;;1.02;100.00;90525.78;5012645;28;20041;-69
2022/04/20 06:26:05;;;;;;;35.83;21.90;;;;;;;1.14;100.00;90531.56;5012374;28;20042;-69
2022/04/20 06:28:30;;;;;;;33.25;21.33;;;;;;;1.33;100.00;90532.59;5012393;28;20065;-70
2022/04/20 06:30:56;;;;;;;37.10;24.88;;;;;;;1.31;100.00;90518.97;4994798;28;20523;-70
2022/04/20 06:33:21;;;;;;;46.83;27.02;;;;;;;1.14;100.00;90508.75;5012236;28;20427;-70
2022/04/20 06:35:53;;;;;;;46.50;26.42;;;;;;;1.12;100.00;90497.75;5012569;28;20033;-69
2022/04/20 06:38:19;;;;;;;46.00;27.48;;;;;;;0.98;100.00;90516.88;5012298;28;20042;-70
2022/04/20 06:40:45;;;;;;;41.83;26.10;;;;;;;1.13;100.00;90511.66;5012487;28;20065;-70
2022/04/20 06:43:10;;;;;;;33.20;22.63;;;;;;;1.32;100.00;90506.66;5012169;28;20045;-71
2022/04/20 06:45:36;;;;;;;29.92;21.25;;;;;;;1.22;100.00;90494.34;5012253;28;20450;-70
2022/04/20 06:48:01;;;;;;;28.52;17.45;;;;;;;1.05;100.00;90509.53;5012148;28;20136;-70
2022/04/20 06:50:27;;;;;;;29.85;18.83;;;;;;;0.83;100.00;90492.25;5012117;28;20038;-71
2022/04/20 06:58:38;;;;;;;;;;;;;;;1.36;100.00;90478.88;5012371;28;20049;-71
2022/04/20 07:01:05;;;;;;;33.80;23.27;;;;;;;1.06;100.00;90469.19;5011941;28;19933;-71
2022/04/20 07:03:31;;;;;;;40.10;24.83;;;;;;;1.04;100.00;90487.00;5011579;28;20045;-71
2022/04/20 07:05:58;;;;;;;45.92;28.00;;;;;;;1.18;100.00;90486.22;5011894;28;20038;-72
2022/04/20 07:08:24;;;;;;;46.10;28.10;;;;;;;1.42;100.00;90494.34;5011848;28;20053;-69
2022/04/20 07:10:50;;;;;;;41.15;26.42;;;;;;;1.30;100.00;90491.19;4998160;28;20030;-69
2022/04/20 07:13:16;;;;;;;49.20;30.67;;;;;;;1.16;100.00;90475.22;4991948;28;20042;-69
2022/04/20 07:15:42;;;;;;;44.63;28.67;;;;;;;1.17;100.00;90470.78;4992108;28;20038;-69
2022/04/20 07:18:08;;;;;;;44.55;29.90;;;;;;;1.13;100.00;90469.72;4991788;28;20042;-70
2022/04/20 07:20:34;;;;;;;85.65;46.33;;;;;;;1.80;100.00;90479.06;4991876;28;20030;-69
2022/04/20 07:22:59;;;;;;;140.55;67.90;;;;;;;1.67;100.00;90479.59;4993244;28;20041;-70
2022/04/20 07:25:25;;;;;;;103.70;54.45;;;;;;;1.71;100.00;90470.94;4991122;28;20046;-70
2022/04/20 07:27:51;;;;;;;113.13;57.15;;;;;;;1.86;100.00;90480.59;4997957;28;20396;-68
2022/04/20 07:30:17;;;;;;;98.00;54.63;;;;;;;1.90;100.00;90468.53;5010572;28;20124;-68
2022/04/20 07:32:44;;;;;;;92.13;52.05;;;;;;;2.00;100.00;90451.97;5011248;28;20519;-69
2022/04/20 07:35:10;;;;;;;69.72;43.28;;;;;;;1.98;100.00;90465.34;5011633;28;20381;-69
2022/04/20 07:37:36;;;;;;;120.75;68.57;;;;;;;1.82;100.00;90461.22;4993528;28;20040;-68
2022/04/20 07:40:02;;;;;;;111.22;69.45;;;;;;;1.60;100.00;90463.38;5010798;28;20424;-68
2022/04/20 07:42:27;;;;;;;123.82;74.70;;;;;;;1.52;100.00;90450.81;5011219;28;20030;-69
2022/04/20 07:44:56;;;;;;;135.60;83.97;;;;;;;1.60;100.00;90456.31;5011176;28;20034;-69
2022/04/20 07:47:25;;;;;;;146.70;91.13;;;;;;;1.66;100.00;90452.59;5011260;28;20026;-68
2022/04/20 07:52:50;;;;;;;144.07;84.25;;;;;;;1.43;100.00;90458.44;5011273;28;20065;-69
2022/04/20 07:55:21;;;;;;;193.02;98.35;;;;;;;1.41;100.00;90465.75;5010602;28;20033;-69
2022/04/20 07:57:49;;;;;;;131.95;74.53;;;;;;;1.32;100.00;90465.53;5011209;28;20018;-69
2022/04/20 08:00:15;;;;;;;96.15;59.45;;;;;;;1.31;100.00;90477.06;5011076;28;20030;-69
2022/04/20 08:02:42;;;;;;;85.65;53.33;;;;;;;1.47;100.00;90464.72;5010920;28;20037;-69
2022/04/20 08:05:08;;;;;;;88.93;50.72;;;;;;;1.43;100.00;90453.19;5011024;28;20523;-67
2022/04/20 08:07:34;;;;;;;75.43;45.55;;;;;;;1.56;100.00;90467.56;5011012;28;20495;-69
2022/04/20 08:10:01;;;;;;;77.70;46.13;;;;;;;1.61;100.00;90443.97;5010572;28;20039;-70
2022/04/20 08:12:29;;;;;;;65.28;41.55;;;;;;;1.76;100.00;90468.31;4993276;28;20026;-71
2022/04/20 08:14:55;;;;;;;69.80;38.60;;;;;;;1.83;100.00;90468.03;5010978;28;20037;-70
2022/04/20 08:17:20;;;;;;;69.93;42.80;;;;;;;1.85;100.00;90467.75;5014388;28;20030;-69
2022/04/20 08:19:46;;;;;;;95.75;55.33;;;;;;;1.52;100.00;90451.59;5014796;28;20107;-69
2022/04/20 08:22:14;;;;;;;80.32;48.17;;;;;;;1.67;100.00;90458.63;5014609;28;20021;-69
2022/04/20 08:24:43;;;;;;;99.88;53.97;;;;;;;1.85;100.00;90450.19;5014021;28;20044;-69
2022/04/20 08:27:09;;;;;;;68.85;41.25;;;;;;;1.90;100.00;90462.50;5014419;28;20537;-69
2022/04/20 08:29:34;;;;;;;64.30;37.75;;;;;;;1.97;100.00;90445.44;5014594;28;20030;-68
2022/04/20 08:32:00;;;;;;;58.78;37.20;;;;;;;2.24;100.00;90445.06;5014384;28;20415;-69
2022/04/20 08:34:25;;;;;;;77.80;48.22;;;;;;;2.09;100.00;90435.41;5014451;28;20026;-68
2022/04/20 08:36:51;;;;;;;106.88;66.68;;;;;;;1.99;100.00;90443.31;5014295;28;20032;-68
2022/04/20 08:39:16;;;;;;;116.93;71.90;;;;;;;1.96;100.00;90436.00;5013912;28;20562;-69
2022/04/20 08:41:48;;;;;;;112.75;72.45;;;;;;;2.06;100.00;90428.09;5014204;28;20036;-69
2022/04/20 08:44:14;;;;;;;113.45;71.43;;;;;;;2.20;100.00;90416.97;5014266;28;20116;-70
2022/04/20 08:46:41;;;;;;;105.40;65.57;;;;;;;2.82;100.00;90426.03;5014240;28;20472;-70
2022/04/20 08:49:06;;;;;;;57.78;39.13;;;;;;;2.93;100.00;90407.31;5014226;28;20064;-69
2022/04/20 08:52:37;;;;;;;67.07;43.35;;;;;;;3.29;100.00;90396.50;5014043;28;20057;-69
2022/04/20 08:54:19;;;;;;;85.60;51.17;;;;;;;3.80;100.00;90404.66;5013085;28;20034;-70
2022/04/20 08:59:31;;;;;;;54.92;36.90;;;;;;;4.68;100.00;90407.75;5014274;28;20084;-68
2022/04/20 09:01:59;;;;;;;44.63;28.98;;;;;;;5.01;100.00;90412.00;5014024;28;20037;-69
2022/04/20 09:04:25;;;;;;;25.23;17.58;;;;;;;4.78;100.00;90400.50;5013943;28;20026;-68
2022/04/20 09:06:50;;;;;;;24.90;16.52;;;;;;;4.44;100.00;90397.31;5013848;28;20466;-68
2022/04/20 09:09:18;;;;;;;16.45;12.95;;;;;;;4.55;100.00;90400.56;5013416;28;20057;-69
2022/04/20 09:11:47;;;;;;;16.77;12.30;;;;;;;4.31;100.00;90398.00;5013758;28;20030;-70
2022/04/20 09:14:13;;;;;;;15.07;11.70;;;;;;;4.16;100.00;90370.81;5014030;28;20030;-70
2022/04/20 09:16:39;;;;;;;25.15;17.88;;;;;;;4.47;100.00;90386.19;5013597;28;20033;-69
2022/04/20 09:19:06;;;;;;;21.10;14.60;;;;;;;4.67;100.00;90379.84;5012262;28;20486;-70
2022/04/20 09:21:34;;;;;;;24.38;16.48;;;;;;;5.10;100.00;90405.00;5013338;28;20034;-69
2022/04/20 09:24:07;;;;;;;17.98;13.45;;;;;;;4.62;100.00;90408.91;5012990;28;20053;-70
2022/04/20 09:26:33;;;;;;;21.35;15.48;;;;;;;4.43;100.00;90396.53;5013029;28;20054;-70
2022/04/20 09:29:08;;;;;;;21.67;16.25;;;;;;;4.43;100.00;90385.19;5013430;28;20026;-71
2022/04/20 09:31:41;;;;;;;20.75;15.35;;;;;;;4.88;100.00;90369.78;4995714;28;20132;-69
2022/04/20 09:34:07;;;;;;;15.88;12.20;;;;;;;5.01;100.00;90369.03;5013457;28;20056;-70
2022/04/20 09:36:45;;;;;;;18.15;13.07;;;;;;;5.58;100.00;90375.72;5012726;28;20268;-70
2022/04/20 09:39:12;;;;;;;29.67;20.23;;;;;;;5.42;100.00;90358.59;5012900;28;20515;-70
2022/04/20 09:41:59;;;;;;;16.58;12.88;;;;;;;5.65;100.00;90370.03;5013188;28;20491;-71
2022/04/20 09:44:26;;;;;;;16.70;12.65;;;;;;;5.18;100.00;90348.19;5013204;28;20484;-69
2022/04/20 09:49:51;;;;;;;10.90;8.35;;;;;;;5.10;100.00;90340.97;5013336;28;20064;-70
2022/04/20 09:52:17;;;;;;;16.58;10.70;;;;;;;5.23;100.00;90345.47;4995293;28;20053;-69
2022/04/20 09:54:59;;;;;;;11.30;8.63;;;;;;;5.50;100.00;90343.94;5012573;28;20022;-69
2022/04/20 09:57:24;;;;;;;12.82;10.05;;;;;;;5.48;100.00;90330.28;5012963;28;20134;-69
2022/04/20 10:00:03;;;;;;;12.27;10.02;;;;;;;5.44;100.00;90335.34;5013178;28;20392;-71
2022/04/20 10:02:29;;;;;;;13.88;10.88;;;;;;;5.95;100.00;90337.03;5012530;28;20454;-69
2022/04/20 10:04:57;;;;;;;13.48;10.15;;;;;;;6.80;100.00;90327.56;5012111;28;20029;-69
2022/04/20 10:07:22;;;;;;;17.65;13.70;;;;;;;7.27;100.00;90314.81;5009436;28;20100;-69
2022/04/20 10:09:48;;;;;;;10.35;9.00;;;;;;;7.43;100.00;90310.69;5012611;28;20505;-68
2022/04/20 10:12:18;;;;;;;10.43;8.68;;;;;;;8.11;100.00;90318.09;5012285;28;20021;-71
2022/04/20 10:17:43;;;;;;;12.07;9.10;;;;;;;6.56;100.00;90306.69;5010969;28;20091;-70
2022/04/20 10:20:09;;;;;;;13.13;10.80;;;;;;;6.77;100.00;90307.78;5009862;28;20025;-70
2022/04/20 10:22:37;;;;;;;15.07;11.73;;;;;;;6.48;100.00;90304.78;5011383;28;20078;-70
2022/04/20 10:25:05;;;;;;;20.35;15.50;;;;;;;6.50;100.00;90294.69;5011530;28;20018;-71
2022/04/20 10:27:52;;;;;;;17.77;12.18;;;;;;;6.52;100.00;90311.81;5011845;28;20045;-70
2022/04/20 10:30:58;;;;;;;12.75;10.43;;;;;;;5.61;100.00;90303.91;5010810;28;20040;-69
2022/04/20 10:33:29;;;;;;;12.80;9.98;;;;;;;4.72;100.00;90306.78;4981894;28;20113;-69
2022/04/20 10:35:58;;;;;;;15.93;12.55;;;;;;;4.54;100.00;90320.75;5011241;28;20488;-70
2022/04/20 10:38:25;;;;;;;18.92;13.48;;;;;;;3.95;100.00;90314.25;5010557;28;20040;-70
2022/04/20 10:41:05;;;;;;;19.55;13.70;;;;;;;3.76;100.00;90331.81;5009329;28;20032;-69
2022/04/20 10:43:34;;;;;;;23.50;14.70;;;;;;;3.49;100.00;90306.91;5012066;28;20029;-69
2022/04/20 10:46:20;;;;;;;21.20;15.50;;;;;;;3.55;100.00;90292.63;5011880;28;20030;-69
2022/04/20 10:49:07;;;;;;;23.98;16.63;;;;;;;4.02;100.00;90300.72;5011900;28;20104;-70
2022/04/20 10:51:39;;;;;;;28.38;19.70;;;;;;;3.96;100.00;90281.59;5011887;28;20415;-69
2022/04/20 10:54:27;;;;;;;31.42;20.83;;;;;;;3.94;100.00;90303.97;5011544;28;20022;-69
2022/04/20 10:56:59;;;;;;;28.35;19.85;;;;;;;4.40;100.00;90281.19;5011614;28;20480;-69
2022/04/20 10:59:24;;;;;;;29.10;17.75;;;;;;;4.13;100.00;90275.84;4994122;28;20511;-69
2022/04/20 11:02:01;;;;;;;36.42;24.10;;;;;;;4.07;100.00;90279.59;5011717;28;20201;-68
2022/04/20 11:04:33;;;;;;;34.58;22.40;;;;;;;4.31;100.00;90284.78;5011852;28;20055;-68
2022/04/20 11:06:59;;;;;;;37.03;22.42;;;;;;;4.79;100.00;90278.22;5011163;28;20041;-70
2022/04/20 11:09:45;;;;;;;26.20;15.70;;;;;;;4.45;100.00;90277.72;5011684;28;20033;-68
2022/04/20 11:21:11;;;;;;;14.57;10.73;;;;;;;3.00;100.00;90267.78;5011434;28;19924;-70
2022/04/20 11:23:58;;;;;;;23.20;15.45;;;;;;;2.93;100.00;90248.91;5010917;28;20032;-70
2022/04/20 11:26:34;;;;;;;23.85;15.38;;;;;;;3.17;100.00;90270.75;5011355;28;20104;-71
2022/04/20 11:29:03;;;;;;;24.80;17.88;;;;;;;3.09;100.00;90266.09;5011687;28;20049;-71
2022/04/20 11:31:42;;;;;;;21.20;14.65;;;;;;;3.06;100.00;90245.63;5011301;28;20022;-72
2022/04/20 11:34:08;;;;;;;23.20;16.92;;;;;;;3.11;100.00;90252.66;5011268;28;20029;-70
2022/04/20 11:36:40;;;;;;;23.17;15.48;;;;;;;3.54;100.00;90261.34;5010793;28;20038;-70
2022/04/20 11:39:06;;;;;;;19.73;13.20;;;;;;;3.56;100.00;90261.84;5011195;28;20025;-70
2022/04/20 11:41:33;;;;;;;23.40;16.77;;;;;;;3.34;100.00;90253.72;5011061;28;20091;-69
2022/04/20 11:43:59;;;;;;;27.50;17.55;;;;;;;3.72;100.00;90265.84;5011233;28;20105;-69
2022/04/20 11:46:25;;;;;;;23.58;18.20;;;;;;;3.80;100.00;90241.56;5011281;28;20041;-69
2022/04/20 11:48:55;;;;;;;26.27;18.60;;;;;;;3.94;100.00;90246.09;5011282;28;20030;-68
2022/04/20 11:51:25;;;;;;;26.27;19.25;;;;;;;4.01;100.00;90251.78;5014509;28;20022;-69
2022/04/20 11:53:51;;;;;;;30.30;19.35;;;;;;;3.63;100.00;90257.06;5015274;28;20030;-68
2022/04/20 11:56:17;;;;;;;27.10;18.98;;;;;;;3.26;100.00;90252.50;5015222;28;20069;-69
2022/04/20 11:58:49;;;;;;;31.27;20.33;;;;;;;2.96;100.00;90233.38;5015021;28;20057;-69
2022/04/20 12:01:15;;;;;;;27.95;18.73;;;;;;;3.27;100.00;90235.66;5015196;28;20496;-69
2022/04/20 12:03:43;;;;;;;28.48;19.90;;;;;;;3.38;100.00;90245.00;5015364;28;20029;-72
2022/04/20 12:06:10;;;;;;;28.25;18.50;;;;;;;2.87;100.00;90229.03;5014671;28;20027;-72
2022/04/20 12:08:40;;;;;;;31.70;21.35;;;;;;;2.75;100.00;90237.28;5015071;28;20535;-72
2022/04/20 12:11:07;;;;;;;32.80;20.48;;;;;;;2.75;100.00;90221.53;5015322;28;20060;-72
2022/04/20 12:13:33;;;;;;;37.65;23.98;;;;;;;2.87;100.00;90223.78;5015036;28;20065;-69
2022/04/20 12:16:04;;;;;;;26.02;17.30;;;;;;;2.51;100.00;90210.19;5014923;28;20053;-72
2022/04/20 12:18:33;;;;;;;26.70;19.20;;;;;;;2.68;100.00;90237.63;5014793;28;20037;-69
2022/04/20 12:20:59;;;;;;;40.20;26.95;;;;;;;2.86;100.00;90230.09;5014261;28;20034;-71
2022/04/20 12:23:32;;;;;;;34.03;23.25;;;;;;;3.02;100.00;90213.09;5014498;28;20116;-70